Andrews, Texas
Current Conditions -  °F | °C
As of 3:35 PM on Friday 31 Oct 2014 (Local Time) from KE11 Reporting Station
Clear Clear  
Wind Chill: 66°   Ceiling: Unl
Heat Index: 66°   Visibility: 10mi
Dew Point: 33°   Wind: 6mph
Humidity: 30%   Direction: 110°ESE
Pressure: 30.35"   Gusts: NA
Location:  32.32°N, 102.54°W
Report Text: KE11 312035Z AUTO 11005KT 10SM CLR 19/01 A3035 RMK AO2 T01900008
Loading
Personal Weather Stations






























Interactive Weather Map
Tropical Storm Tracking
New forecast layout! Learn more

10-Day Weather Forecast

Advertisements
Track Severe Weather on mobile